createdAt,value
2023-01-09T00:01:51.819Z,98779.06
2023-01-09T00:03:53.539Z,98785.09
2023-01-09T00:05:55.198Z,98785.72
2023-01-09T00:07:56.867Z,98780.31
2023-01-09T00:09:58.488Z,98781.75
2023-01-09T00:12:00.055Z,98772.72
2023-01-09T00:14:01.790Z,98777.47
2023-01-09T00:16:05.895Z,98771.94
2023-01-09T00:18:07.491Z,98760.84
2023-01-09T00:20:11.012Z,98752.59
2023-01-09T00:22:12.516Z,98749.78
2023-01-09T00:24:14.056Z,98740.09
2023-01-09T00:26:17.352Z,98743.09
2023-01-09T00:28:18.883Z,98745.78
2023-01-09T00:30:20.586Z,98736.28
2023-01-09T00:32:23.578Z,98732.66
2023-01-09T00:34:25.796Z,98735.19
2023-01-09T00:36:28.182Z,98742.47
2023-01-09T00:38:29.924Z,98739.47
2023-01-09T00:40:31.654Z,98742.78
2023-01-09T00:42:35.249Z,98739.00
2023-01-09T00:44:40.599Z,98730.22
2023-01-09T00:46:45.359Z,98733.09
2023-01-09T00:48:49.082Z,98739.13
2023-01-09T00:50:51.243Z,98742.28
2023-01-09T00:52:55.680Z,98739.56
2023-01-09T00:54:57.895Z,98734.19
2023-01-09T00:56:59.630Z,98739.09
2023-01-09T00:59:01.223Z,98739.91
2023-01-09T01:01:03.302Z,98736.53
2023-01-09T01:03:04.933Z,98735.91
2023-01-09T01:05:08.865Z,98741.75
2023-01-09T01:07:13.459Z,98749.53
2023-01-09T01:09:15.070Z,98742.88
2023-01-09T01:11:16.580Z,98744.13
2023-01-09T01:13:18.095Z,98729.41
2023-01-09T01:15:20.799Z,98742.88
2023-01-09T01:17:22.447Z,98738.59
2023-01-09T01:19:24.017Z,98738.13
2023-01-09T01:21:26.959Z,98744.63
2023-01-09T01:23:28.549Z,98737.69
2023-01-09T01:25:30.198Z,98740.50
2023-01-09T01:27:31.825Z,98748.28
2023-01-09T01:29:33.377Z,98753.84
2023-01-09T01:31:34.995Z,98751.16
2023-01-09T01:33:36.542Z,98752.72
2023-01-09T01:35:38.399Z,98755.72
2023-01-09T01:37:41.399Z,98762.38
2023-01-09T01:39:42.973Z,98760.31
2023-01-09T01:41:44.603Z,98767.63
2023-01-09T01:43:51.025Z,98761.47
2023-01-09T01:45:52.669Z,98752.56
2023-01-09T01:47:58.315Z,98751.00
2023-01-09T01:50:04.673Z,98749.25
2023-01-09T01:52:06.900Z,98755.88
2023-01-09T01:54:13.573Z,98766.25
2023-01-09T01:56:17.814Z,98771.63
2023-01-09T01:58:20.669Z,98770.97
2023-01-09T02:00:29.109Z,98771.28
2023-01-09T02:02:32.297Z,98777.94
2023-01-09T02:04:36.836Z,98762.56
2023-01-09T02:06:39.021Z,98763.34
2023-01-09T02:08:40.552Z,98763.69
2023-01-09T02:10:44.816Z,98767.03
2023-01-09T02:12:46.738Z,98759.41
2023-01-09T02:14:56.655Z,98759.75
2023-01-09T02:17:10.247Z,98757.97
2023-01-09T02:19:32.628Z,98760.22
2023-01-09T02:21:49.741Z,98749.09
2023-01-09T02:24:22.647Z,98752.13
2023-01-09T02:26:57.950Z,98748.16
2023-01-09T02:29:29.826Z,98739.22
2023-01-09T02:31:41.900Z,98741.63
2023-01-09T02:33:54.873Z,98750.63
2023-01-09T02:36:12.281Z,98755.56
2023-01-09T02:38:22.669Z,98739.53
2023-01-09T02:40:29.642Z,98739.69
2023-01-09T02:42:31.956Z,98750.94
2023-01-09T02:44:34.986Z,98759.34
2023-01-09T02:46:37.898Z,98756.81
2023-01-09T02:48:39.929Z,98756.13
2023-01-09T02:50:47.606Z,98762.84
2023-01-09T02:53:14.534Z,98770.28
2023-01-09T02:55:28.426Z,98774.72
2023-01-09T02:57:46.578Z,98775.78
2023-01-09T02:59:59.776Z,98783.06
2023-01-09T03:02:20.339Z,98778.78
2023-01-09T03:04:28.267Z,98773.72
2023-01-09T03:06:35.746Z,98787.22
2023-01-09T03:08:41.685Z,98786.09
2023-01-09T03:10:48.476Z,98801.47
2023-01-09T03:12:58.909Z,98798.31
2023-01-09T03:15:02.500Z,98805.78
2023-01-09T03:17:10.074Z,98805.78
2023-01-09T03:19:16.653Z,98810.06
2023-01-09T03:21:20.052Z,98809.75
2023-01-09T03:23:22.414Z,98815.78
2023-01-09T03:25:25.236Z,98819.72
2023-01-09T03:27:27.383Z,98820.66
2023-01-09T03:29:29.638Z,98829.09
2023-01-09T03:31:34.271Z,98830.16
2023-01-09T03:33:35.936Z,98831.59
2023-01-09T03:35:38.812Z,98841.13
2023-01-09T03:37:40.299Z,98845.22
2023-01-09T03:39:41.881Z,98840.31
2023-01-09T03:41:43.452Z,98851.56
2023-01-09T03:43:45.613Z,98857.25
2023-01-09T03:45:47.303Z,98867.38
2023-01-09T03:47:52.961Z,98863.59
2023-01-09T03:49:54.670Z,98860.22
2023-01-09T03:51:57.636Z,98863.72
2023-01-09T03:53:59.210Z,98861.16
2023-01-09T03:56:00.728Z,98867.03
2023-01-09T03:58:02.290Z,98875.47
2023-01-09T04:00:04.652Z,98881.78
2023-01-09T04:02:06.702Z,98890.19
2023-01-09T04:04:08.411Z,98893.19
2023-01-09T04:06:10.025Z,98902.28
2023-01-09T04:08:13.649Z,98916.72
2023-01-09T04:10:15.914Z,98923.38
2023-01-09T04:12:17.435Z,98925.28
2023-01-09T04:14:19.045Z,98930.69
2023-01-09T04:16:20.643Z,98939.25
2023-01-09T04:18:22.319Z,98950.81
2023-01-09T04:20:23.895Z,98952.88
2023-01-09T04:22:28.194Z,98956.38
2023-01-09T04:24:31.097Z,98961.13
2023-01-09T04:26:32.659Z,98985.63
2023-01-09T04:28:34.249Z,98995.59
2023-01-09T04:30:35.848Z,98998.44
2023-01-09T04:32:37.420Z,99004.97
2023-01-09T04:34:39.005Z,99000.53
2023-01-09T04:36:40.585Z,99010.19
2023-01-09T04:38:42.129Z,99009.72
2023-01-09T04:40:47.178Z,99008.59
2023-01-09T04:42:48.765Z,99011.00
2023-01-09T04:44:50.386Z,99016.84
2023-01-09T04:46:52.595Z,99020.03
2023-01-09T04:48:54.143Z,99015.75
2023-01-09T04:50:55.722Z,99017.81
2023-01-09T04:52:57.354Z,99031.00
2023-01-09T04:54:58.963Z,99031.63
2023-01-09T04:57:01.899Z,99037.38
2023-01-09T04:59:03.885Z,99044.66
2023-01-09T05:01:05.829Z,99048.16
2023-01-09T05:03:07.501Z,99049.59
2023-01-09T05:05:11.711Z,99051.19
2023-01-09T05:07:13.547Z,99052.13
2023-01-09T05:09:15.333Z,99062.75
2023-01-09T05:11:17.071Z,99068.94
2023-01-09T05:13:20.023Z,99073.38
2023-01-09T05:15:21.641Z,99082.25
2023-01-09T05:17:23.358Z,99084.66
2023-01-09T05:19:25.166Z,99094.50
2023-01-09T05:21:27.789Z,99098.78
2023-01-09T05:23:29.329Z,99097.03
2023-01-09T05:25:31.056Z,99100.53
2023-01-09T05:27:32.613Z,99104.16
2023-01-09T05:29:35.728Z,99103.53
2023-01-09T05:31:37.361Z,99103.88
2023-01-09T05:33:39.039Z,99104.97
2023-01-09T05:35:40.680Z,99110.38
2023-01-09T05:37:42.526Z,99107.97
2023-01-09T05:39:44.157Z,99113.81
2023-01-09T05:41:45.714Z,99113.81
2023-01-09T05:43:47.331Z,99127.00
2023-01-09T05:45:50.247Z,99127.78
2023-01-09T05:47:51.797Z,99126.19
2023-01-09T05:49:53.342Z,99128.13
2023-01-09T05:51:54.853Z,99133.19
2023-01-09T05:53:56.552Z,99128.25
2023-01-09T05:55:58.161Z,99129.19
2023-01-09T05:57:59.817Z,99127.59
2023-01-09T06:00:01.619Z,99129.19
2023-01-09T06:02:04.800Z,99142.81
2023-01-09T06:04:06.800Z,99139.63
2023-01-09T06:06:08.384Z,99146.53
2023-01-09T06:08:10.051Z,99158.09
2023-01-09T06:10:13.729Z,99159.88
2023-01-09T06:12:15.316Z,99166.81
2023-01-09T06:14:17.152Z,99173.94
2023-01-09T06:16:18.885Z,99171.25
2023-01-09T06:18:21.893Z,99167.44
2023-01-09T06:20:23.504Z,99170.59
2023-01-09T06:22:25.144Z,99169.81
2023-01-09T06:24:26.737Z,99167.06
2023-01-09T06:26:28.304Z,99183.88
2023-01-09T06:28:29.910Z,99177.25
2023-01-09T06:30:33.558Z,99179.44
2023-01-09T06:32:35.607Z,99174.97
2023-01-09T06:34:49.447Z,99183.28
2023-01-09T06:36:51.291Z,99188.44
2023-01-09T06:38:58.388Z,99194.69
2023-01-09T06:43:34.745Z,99193.72
2023-01-09T06:45:36.720Z,99191.78
2023-01-09T06:49:49.748Z,99196.22
2023-01-09T06:51:53.930Z,99198.25
2023-01-09T06:53:56.793Z,99199.47
2023-01-09T06:55:58.804Z,99203.31
2023-01-09T07:00:24.398Z,99198.44
2023-01-09T07:02:26.215Z,99199.34
2023-01-09T07:04:28.022Z,99195.69
2023-01-09T07:06:30.338Z,99190.44
2023-01-09T07:08:43.567Z,99192.50
2023-01-09T07:10:48.491Z,99183.91
2023-01-09T07:12:53.036Z,99182.53
2023-01-09T07:14:57.491Z,99183.03
2023-01-09T07:16:59.661Z,99188.44
2023-01-09T07:19:01.619Z,99189.25
2023-01-09T07:21:06.092Z,99184.66
2023-01-09T07:23:11.581Z,99192.22
2023-01-09T07:25:16.626Z,99200.13
2023-01-09T07:27:24.905Z,99205.94
2023-01-09T07:29:26.938Z,99211.50
2023-01-09T07:31:31.828Z,99201.06
2023-01-09T07:33:41.376Z,99207.25
2023-01-09T07:35:43.416Z,99219.56
2023-01-09T07:37:46.910Z,99212.16
2023-01-09T07:39:49.288Z,99216.13
2023-01-09T07:41:52.768Z,99217.09
2023-01-09T07:44:02.523Z,99213.50
2023-01-09T07:46:04.995Z,99224.56
2023-01-09T07:48:07.280Z,99226.53
2023-01-09T07:50:09.976Z,99229.47
2023-01-09T07:52:11.815Z,99230.81
2023-01-09T07:54:14.411Z,99228.41
2023-01-09T07:56:17.885Z,99237.97
2023-01-09T07:58:23.758Z,99237.84
2023-01-09T08:00:25.836Z,99240.34
2023-01-09T08:02:28.318Z,99237.84
2023-01-09T08:04:30.220Z,99239.69
2023-01-09T08:06:32.389Z,99242.97
2023-01-09T08:08:36.697Z,99247.09
2023-01-09T08:10:38.547Z,99245.88
2023-01-09T08:12:44.399Z,99245.75
2023-01-09T08:14:47.833Z,99245.38
2023-01-09T08:16:49.627Z,99254.75
2023-01-09T08:18:59.508Z,99256.66
2023-01-09T08:21:02.972Z,99255.72
2023-01-09T08:23:05.234Z,99255.09
2023-01-09T08:25:11.970Z,99251.56
2023-01-09T08:27:14.510Z,99257.78
2023-01-09T08:29:19.249Z,99256.00
2023-01-09T08:31:25.841Z,99255.53
2023-01-09T08:33:27.780Z,99253.16
2023-01-09T08:35:33.494Z,99257.06
2023-01-09T08:37:39.229Z,99260.06
2023-01-09T08:39:42.648Z,99258.03
2023-01-09T08:41:47.009Z,99268.31
2023-01-09T08:43:51.098Z,99269.00
2023-01-09T08:45:53.073Z,99264.47
2023-01-09T08:47:56.842Z,99265.88
2023-01-09T08:49:59.051Z,99268.56
2023-01-09T08:52:08.999Z,99263.25
2023-01-09T08:54:18.071Z,99271.31
2023-01-09T08:56:30.574Z,99267.69
2023-01-09T08:58:32.543Z,99279.75
2023-01-09T09:00:34.425Z,99270.41
2023-01-09T09:02:36.562Z,99264.41
2023-01-09T09:04:50.929Z,99279.75
2023-01-09T09:06:57.703Z,99277.88
2023-01-09T09:09:02.665Z,99276.78
2023-01-09T09:11:04.485Z,99279.75
2023-01-09T09:13:06.434Z,99282.59
2023-01-09T09:15:21.812Z,99301.13
2023-01-09T09:17:23.727Z,99296.00
2023-01-09T09:19:25.575Z,99286.63
2023-01-09T09:21:30.861Z,99300.72
2023-01-09T09:23:35.981Z,99298.19
2023-01-09T09:25:41.482Z,99296.06
2023-01-09T09:27:46.414Z,99302.06
2023-01-09T09:29:57.799Z,99297.84
2023-01-09T09:32:06.524Z,99295.75
2023-01-09T09:34:37.608Z,99295.56
2023-01-09T09:36:50.766Z,99303.78
2023-01-09T09:38:53.070Z,99308.25
2023-01-09T09:41:31.323Z,99305.25
2023-01-09T09:44:11.405Z,99304.66
2023-01-09T09:46:36.832Z,99299.44
2023-01-09T09:48:51.148Z,99310.56
2023-01-09T09:51:23.190Z,99304.63
2023-01-09T09:53:37.180Z,99292.13
2023-01-09T09:55:43.169Z,99310.75
2023-01-09T09:57:49.183Z,99313.25
2023-01-09T10:02:24.412Z,99309.19
2023-01-09T10:04:30.903Z,99301.03
2023-01-09T10:06:39.197Z,99299.94
2023-01-09T10:11:41.557Z,99305.41
2023-01-09T10:13:44.708Z,99301.81
2023-01-09T10:15:57.830Z,99302.72
2023-01-09T10:18:26.549Z,99297.41
2023-01-09T10:20:52.686Z,99291.69
2023-01-09T10:23:10.745Z,99296.31
2023-01-09T10:25:39.568Z,99310.88
2023-01-09T10:28:03.544Z,99301.53
2023-01-09T10:30:31.924Z,99306.78
2023-01-09T10:33:14.198Z,99310.31
2023-01-09T10:35:47.012Z,99318.13
2023-01-09T10:38:01.973Z,99315.66
2023-01-09T10:40:21.251Z,99315.94
2023-01-09T10:42:31.161Z,99308.38
2023-01-09T10:47:26.046Z,99296.81
2023-01-09T10:49:35.552Z,99309.19
2023-01-09T10:51:46.080Z,99308.06
2023-01-09T10:54:05.516Z,99311.06
2023-01-09T10:56:25.863Z,99303.59
2023-01-09T10:58:41.068Z,99311.72
2023-01-09T11:00:44.806Z,99316.53
2023-01-09T11:02:49.681Z,99320.63
2023-01-09T11:05:01.015Z,99306.53
2023-01-09T11:07:07.477Z,99316.59
2023-01-09T11:09:09.775Z,99319.72
2023-01-09T11:11:31.920Z,99311.00
2023-01-09T11:13:41.988Z,99308.69
2023-01-09T11:18:28.173Z,99304.13
2023-01-09T11:20:37.682Z,99295.44
2023-01-09T11:22:45.338Z,99294.03
2023-01-09T11:25:02.089Z,99298.34
2023-01-09T11:27:40.350Z,99303.22
2023-01-09T11:30:15.637Z,99301.63
2023-01-09T11:32:23.014Z,99303.31
2023-01-09T11:34:31.551Z,99310.88
2023-01-09T11:36:39.480Z,99315.16
2023-01-09T11:38:53.895Z,99305.50
2023-01-09T11:40:59.610Z,99312.03
2023-01-09T11:43:14.517Z,99306.34
2023-01-09T11:45:20.774Z,99302.84
2023-01-09T11:47:39.793Z,99305.66
2023-01-09T11:49:41.708Z,99313.94
2023-01-09T11:51:44.624Z,99317.59
2023-01-09T11:53:55.039Z,99314.56
2023-01-09T11:55:59.403Z,99303.28
2023-01-09T11:58:01.198Z,99301.88
2023-01-09T12:00:13.759Z,99300.94
2023-01-09T12:02:52.608Z,99304.06
2023-01-09T12:04:59.321Z,99309.47
2023-01-09T12:07:24.781Z,99309.59
2023-01-09T12:09:37.079Z,99311.66
2023-01-09T12:11:47.878Z,99309.97
2023-01-09T12:14:17.524Z,99306.47
2023-01-09T12:16:26.626Z,99303.81
2023-01-09T12:18:40.767Z,99294.53
2023-01-09T12:20:58.652Z,99295.31
2023-01-09T12:23:15.743Z,99287.63
2023-01-09T12:25:30.999Z,99295.63
2023-01-09T12:27:56.741Z,99285.88
2023-01-09T12:30:15.395Z,99299.94
2023-01-09T12:32:28.850Z,99287.63
2023-01-09T12:34:48.622Z,99292.75
2023-01-09T12:37:00.332Z,99289.72
2023-01-09T12:39:11.208Z,99302.22
2023-01-09T12:41:25.549Z,99288.44
2023-01-09T12:43:38.033Z,99299.63
2023-01-09T12:45:57.851Z,99287.34
2023-01-09T12:48:04.227Z,99284.41
2023-01-09T12:50:23.718Z,99274.13
2023-01-09T12:52:31.210Z,99284.09
2023-01-09T12:54:39.880Z,99292.84
2023-01-09T12:56:45.442Z,99296.00
2023-01-09T12:58:51.063Z,99292.25
2023-01-09T13:00:55.671Z,99295.72
2023-01-09T13:03:12.452Z,99293.44
2023-01-09T13:05:25.000Z,99293.78
2023-01-09T13:07:30.680Z,99295.06
2023-01-09T13:09:43.279Z,99296.03
2023-01-09T13:11:49.981Z,99304.44
2023-01-09T13:13:58.424Z,99318.81
2023-01-09T13:16:06.168Z,99306.47
2023-01-09T13:18:14.839Z,99313.25
2023-01-09T13:20:23.136Z,99315.53
2023-01-09T13:22:28.643Z,99322.69
2023-01-09T13:24:36.843Z,99329.25
2023-01-09T13:26:43.103Z,99318.97
2023-01-09T13:28:48.195Z,99317.94
2023-01-09T13:31:14.442Z,99313.81
2023-01-09T13:33:20.135Z,99316.34
2023-01-09T13:35:25.345Z,99318.13
2023-01-09T13:37:38.312Z,99319.44
2023-01-09T13:39:40.024Z,99315.78
2023-01-09T13:41:48.012Z,99307.38
2023-01-09T13:43:54.330Z,99311.72
2023-01-09T13:45:58.441Z,99310.28
2023-01-09T13:48:28.233Z,99312.06
2023-01-09T13:50:31.372Z,99321.13
2023-01-09T13:52:36.616Z,99317.78
2023-01-09T13:55:00.792Z,99332.91
2023-01-09T13:57:27.225Z,99337.63
2023-01-09T13:59:29.114Z,99337.72
2023-01-09T14:01:42.491Z,99345.72
2023-01-09T14:04:04.624Z,99346.69
2023-01-09T14:06:16.768Z,99354.50
2023-01-09T14:08:20.140Z,99354.19
2023-01-09T14:10:24.524Z,99349.25
2023-01-09T14:12:28.946Z,99353.09
2023-01-09T14:14:34.704Z,99355.97
2023-01-09T14:16:37.178Z,99357.34
2023-01-09T14:18:45.865Z,99355.31
2023-01-09T14:20:56.404Z,99360.34
2023-01-09T14:23:18.188Z,99359.38
2023-01-09T14:25:25.415Z,99357.78
2023-01-09T14:28:04.409Z,99364.34
2023-01-09T14:30:32.391Z,99366.66
2023-01-09T14:32:42.270Z,99375.75
2023-01-09T14:34:47.692Z,99378.75
2023-01-09T14:36:49.725Z,99378.75
2023-01-09T14:38:54.828Z,99389.91
2023-01-09T14:41:01.700Z,99396.06
2023-01-09T14:43:14.644Z,99403.34
2023-01-09T14:45:20.717Z,99413.84
2023-01-09T14:47:34.721Z,99410.88
2023-01-09T14:49:42.374Z,99405.91
2023-01-09T14:51:47.250Z,99407.69
2023-01-09T14:53:52.757Z,99406.66
2023-01-09T14:55:57.604Z,99415.06
2023-01-09T14:58:10.844Z,99424.53
2023-01-09T15:00:17.962Z,99427.66
2023-01-09T15:02:23.337Z,99432.25
2023-01-09T15:04:31.515Z,99434.56
2023-01-09T15:06:37.745Z,99446.03
2023-01-09T15:08:39.693Z,99450.03
2023-01-09T15:10:46.433Z,99440.84
2023-01-09T15:12:53.795Z,99438.16
2023-01-09T15:14:59.235Z,99452.59
2023-01-09T15:17:01.560Z,99452.66
2023-01-09T15:19:07.646Z,99450.41
2023-01-09T15:21:17.962Z,99455.63
2023-01-09T15:23:23.852Z,99447.03
2023-01-09T15:25:37.757Z,99453.88
2023-01-09T15:27:48.581Z,99453.41
2023-01-09T15:29:51.412Z,99456.28
2023-01-09T15:31:55.724Z,99458.31
2023-01-09T15:33:57.618Z,99451.31
2023-01-09T15:35:59.807Z,99460.88
2023-01-09T15:38:01.850Z,99451.69
2023-01-09T15:40:06.782Z,99454.09
2023-01-09T15:42:20.903Z,99457.56
2023-01-09T15:44:28.785Z,99457.50
2023-01-09T15:46:30.604Z,99461.97
2023-01-09T15:48:33.540Z,99456.41
2023-01-09T15:50:35.663Z,99463.56
2023-01-09T15:52:38.329Z,99462.78
2023-01-09T15:54:40.772Z,99467.56
2023-01-09T15:56:44.403Z,99470.19
2023-01-09T15:58:51.210Z,99476.56
2023-01-09T16:00:58.364Z,99487.91
2023-01-09T16:03:01.893Z,99492.94
2023-01-09T16:05:07.135Z,99493.19
2023-01-09T16:07:14.058Z,99494.06
2023-01-09T16:09:17.457Z,99499.47
2023-01-09T16:11:24.156Z,99496.84
2023-01-09T16:13:28.841Z,99504.66
2023-01-09T16:15:34.683Z,99511.81
2023-01-09T16:17:38.196Z,99515.47
2023-01-09T16:19:46.906Z,99529.78
2023-01-09T16:21:57.244Z,99528.03
2023-01-09T16:24:00.147Z,99525.47
2023-01-09T16:26:12.643Z,99526.75
2023-01-09T16:28:20.016Z,99534.50
2023-01-09T16:30:26.749Z,99535.00
2023-01-09T16:32:30.719Z,99544.19
2023-01-09T16:34:36.191Z,99549.91
2023-01-09T16:36:37.878Z,99557.41
2023-01-09T16:38:41.675Z,99559.78
2023-01-09T16:41:01.003Z,99561.38
2023-01-09T16:43:02.667Z,99557.69
2023-01-09T16:45:19.053Z,99563.69
2023-01-09T16:47:20.678Z,99563.06
2023-01-09T16:49:25.151Z,99562.59
2023-01-09T16:51:28.524Z,99567.56
2023-01-09T16:53:30.325Z,99565.97
2023-01-09T16:55:32.206Z,99563.97
2023-01-09T16:57:34.933Z,99563.97
2023-01-09T16:59:36.650Z,99572.75
2023-01-09T17:01:38.390Z,99575.47
2023-01-09T17:03:42.862Z,99575.47
2023-01-09T17:05:51.495Z,99582.16
2023-01-09T17:07:57.672Z,99589.84
2023-01-09T17:09:59.303Z,99594.91
2023-01-09T17:12:00.956Z,99598.44
2023-01-09T17:14:03.015Z,99605.09
2023-01-09T17:16:05.047Z,99607.19
2023-01-09T17:18:12.983Z,99605.53
2023-01-09T17:20:18.232Z,99617.28
2023-01-09T17:22:22.676Z,99619.38
2023-01-09T17:24:26.002Z,99620.78
2023-01-09T17:26:27.618Z,99626.56
2023-01-09T17:28:30.194Z,99633.06
2023-01-09T17:30:31.828Z,99633.75
2023-01-09T17:32:36.347Z,99636.97
2023-01-09T17:34:37.963Z,99634.28
2023-01-09T17:36:43.306Z,99644.16
2023-01-09T17:38:44.991Z,99654.72
2023-01-09T17:40:48.843Z,99658.59
2023-01-09T17:42:52.488Z,99664.09
2023-01-09T17:44:54.159Z,99666.22
2023-01-09T17:46:55.781Z,99675.28
2023-01-09T17:48:57.981Z,99672.28
2023-01-09T17:50:59.706Z,99677.78
2023-01-09T17:53:01.332Z,99683.56
2023-01-09T17:55:03.063Z,99692.84
2023-01-09T17:57:07.060Z,99693.63
2023-01-09T17:59:11.499Z,99698.53
2023-01-09T18:01:14.856Z,99699.34
2023-01-09T18:03:16.567Z,99707.09
2023-01-09T18:05:18.290Z,99711.38
2023-01-09T18:07:20.293Z,99719.16
2023-01-09T18:09:22.075Z,99720.25
2023-01-09T18:11:23.745Z,99723.78
2023-01-09T18:13:27.396Z,99725.66
2023-01-09T18:15:29.048Z,99738.25
2023-01-09T18:17:33.385Z,99737.25
2023-01-09T18:19:35.177Z,99752.00
2023-01-09T18:21:36.872Z,99744.41
2023-01-09T18:23:38.557Z,99758.38
2023-01-09T18:25:41.149Z,99758.38
2023-01-09T18:27:42.875Z,99760.78
2023-01-09T18:29:46.095Z,99766.88
2023-01-09T18:31:47.903Z,99780.94
2023-01-09T18:33:54.258Z,99788.13
2023-01-09T18:35:55.830Z,99788.22
2023-01-09T18:37:57.494Z,99798.19
2023-01-09T18:40:00.418Z,99799.72
2023-01-09T18:42:02.172Z,99798.63
2023-01-09T18:44:03.887Z,99802.03
2023-01-09T18:46:10.472Z,99807.13
2023-01-09T18:48:12.213Z,99815.72
2023-01-09T18:50:13.920Z,99814.13
2023-01-09T18:52:18.771Z,99825.91
2023-01-09T18:54:22.879Z,99827.59
2023-01-09T18:56:24.835Z,99829.56
2023-01-09T18:58:26.508Z,99833.94
2023-01-09T19:00:28.137Z,99833.34
2023-01-09T19:02:31.169Z,99832.78
2023-01-09T19:04:32.907Z,99844.34
2023-01-09T19:06:36.740Z,99845.63
2023-01-09T19:08:38.748Z,99848.84
2023-01-09T19:10:40.597Z,99847.03
2023-01-09T19:12:42.191Z,99854.53
2023-01-09T19:14:43.846Z,99859.13
2023-01-09T19:16:45.527Z,99858.03
2023-01-09T19:18:48.662Z,99863.41
2023-01-09T19:20:50.440Z,99875.81
2023-01-09T19:22:52.309Z,99874.19
2023-01-09T19:24:53.956Z,99869.63
2023-01-09T19:26:55.570Z,99881.19
2023-01-09T19:28:57.524Z,99874.91
2023-01-09T19:30:59.460Z,99880.81
2023-01-09T19:33:05.560Z,99879.66
2023-01-09T19:35:09.359Z,99887.59
2023-01-09T19:37:11.199Z,99887.31
2023-01-09T19:39:13.423Z,99895.13
2023-01-09T19:41:17.507Z,99888.63
2023-01-09T19:43:21.093Z,99891.81
2023-01-09T19:45:23.307Z,99901.72
2023-01-09T19:47:25.314Z,99908.50
2023-01-09T19:49:26.989Z,99907.72
2023-01-09T19:51:30.744Z,99907.97
2023-01-09T19:53:33.578Z,99912.78
2023-01-09T19:55:35.321Z,99915.19
2023-01-09T19:57:37.331Z,99919.50
2023-01-09T19:59:41.218Z,99918.41
2023-01-09T20:01:43.171Z,99931.59
2023-01-09T20:03:46.586Z,99932.47
2023-01-09T20:05:48.377Z,99935.75
2023-01-09T20:07:54.977Z,99937.88
2023-01-09T20:09:56.759Z,99943.25
2023-01-09T20:11:58.725Z,99940.06
2023-01-09T20:14:00.992Z,99941.34
2023-01-09T20:16:03.717Z,99941.94
2023-01-09T20:18:06.266Z,99941.94
2023-01-09T20:20:09.467Z,99943.53
2023-01-09T20:22:11.234Z,99947.84
2023-01-09T20:24:17.029Z,99958.09
2023-01-09T20:26:19.817Z,99958.63
2023-01-09T20:28:22.395Z,99951.94
2023-01-09T20:30:24.217Z,99953.31
2023-01-09T20:32:25.936Z,99954.69
2023-01-09T20:34:38.308Z,99958.72
2023-01-09T20:36:40.266Z,99964.59
2023-01-09T20:38:42.891Z,99966.78
2023-01-09T20:40:46.052Z,99965.63
2023-01-09T20:42:48.063Z,99975.97
2023-01-09T20:44:49.731Z,99970.22
2023-01-09T20:46:51.469Z,99974.00
2023-01-09T20:48:55.743Z,99982.38
2023-01-09T20:51:04.043Z,99979.44
2023-01-09T20:53:07.823Z,99991.06
2023-01-09T20:55:10.310Z,99993.75
2023-01-09T20:57:13.359Z,99997.59
2023-01-09T20:59:18.264Z,99996.28
2023-01-09T21:01:20.746Z,99995.47
2023-01-09T21:03:22.930Z,100004.88
2023-01-09T21:05:25.154Z,100009.75
2023-01-09T21:07:27.124Z,100008.72
2023-01-09T21:09:29.006Z,100012.06
2023-01-09T21:11:31.250Z,100016.88
2023-01-09T21:13:35.133Z,100014.19
2023-01-09T21:15:51.722Z,100010.47
2023-01-09T21:17:53.568Z,100011.78
2023-01-09T21:19:55.377Z,100016.44
2023-01-09T21:22:01.276Z,100011.03
2023-01-09T21:24:06.067Z,100014.56
2023-01-09T21:26:08.731Z,100019.63
2023-01-09T21:28:13.475Z,100021.53
2023-01-09T21:30:16.761Z,100020.16
2023-01-09T21:32:18.439Z,100030.63
2023-01-09T21:34:21.426Z,100027.72
2023-01-09T21:36:23.145Z,100030.38
2023-01-09T21:38:26.078Z,100034.72
2023-01-09T21:40:27.868Z,100042.59
2023-01-09T21:42:31.765Z,100032.06
2023-01-09T21:44:33.588Z,100046.88
2023-01-09T21:46:36.676Z,100056.06
2023-01-09T21:48:38.331Z,100053.81
2023-01-09T21:50:40.285Z,100059.31
2023-01-09T21:52:41.975Z,100049.63
2023-01-09T21:54:43.604Z,100055.75
2023-01-09T21:56:45.702Z,100058.22
2023-01-09T21:58:47.579Z,100060.13
2023-01-09T22:00:49.220Z,100062.41
2023-01-09T22:02:52.382Z,100063.56
2023-01-09T22:04:54.098Z,100068.03
2023-01-09T22:06:55.797Z,100069.03
2023-01-09T22:08:57.529Z,100063.44
2023-01-09T22:11:02.168Z,100069.31
2023-01-09T22:13:03.851Z,100081.09
2023-01-09T22:15:06.693Z,100084.88
2023-01-09T22:17:08.411Z,100083.44
2023-01-09T22:19:12.606Z,100083.16
2023-01-09T22:21:14.548Z,100091.19
2023-01-09T22:23:16.358Z,100105.94
2023-01-09T22:25:18.290Z,100099.69
2023-01-09T22:27:19.974Z,100109.31
2023-01-09T22:29:29.562Z,100103.91
2023-01-09T22:31:31.244Z,100121.97
2023-01-09T22:33:32.907Z,100117.91
2023-01-09T22:35:44.028Z,100122.22
2023-01-09T22:37:53.432Z,100120.66
2023-01-09T22:39:55.391Z,100126.34
2023-01-09T22:41:57.070Z,100126.84
2023-01-09T22:43:59.276Z,100135.72
2023-01-09T22:46:02.242Z,100144.34
2023-01-09T22:48:04.300Z,100142.16
2023-01-09T22:50:07.675Z,100151.09
2023-01-09T22:52:11.002Z,100158.38
2023-01-09T22:54:12.623Z,100153.81
2023-01-09T22:56:17.175Z,100157.59
2023-01-09T22:58:18.886Z,100171.09
2023-01-09T23:00:20.801Z,100170.34
2023-01-09T23:02:22.747Z,100169.47
2023-01-09T23:04:24.476Z,100189.72
2023-01-09T23:06:26.199Z,100191.41
2023-01-09T23:08:29.860Z,100190.34
2023-01-09T23:10:31.551Z,100184.66
2023-01-09T23:12:33.471Z,100195.41
2023-01-09T23:14:37.140Z,100196.16
2023-01-09T23:16:39.034Z,100196.19
2023-01-09T23:18:40.928Z,100202.06
2023-01-09T23:20:50.179Z,100202.06
2023-01-09T23:22:51.954Z,100204.50
2023-01-09T23:24:55.004Z,100212.31
2023-01-09T23:26:57.282Z,100208.31
2023-01-09T23:28:58.957Z,100215.56
2023-01-09T23:31:00.589Z,100213.22
2023-01-09T23:33:02.234Z,100215.34
2023-01-09T23:35:04.580Z,100218.38
2023-01-09T23:37:06.220Z,100224.31
2023-01-09T23:39:07.991Z,100224.28
2023-01-09T23:41:11.109Z,100230.53
2023-01-09T23:43:14.708Z,100233.72
2023-01-09T23:45:16.449Z,100230.66
2023-01-09T23:47:18.092Z,100236.28
2023-01-09T23:49:19.773Z,100237.09
2023-01-09T23:51:21.431Z,100242.75
2023-01-09T23:53:23.400Z,100244.59
2023-01-09T23:55:25.297Z,100254.28
2023-01-09T23:57:28.508Z,100258.06
2023-01-09T23:59:30.257Z,100256.75
